CW6020 Teulada ES current weather conditions

sailwx.info

Wind from 315 at 2 knots gusting 4

Air temperature 13.3° C
Dewpoint 11.6° C

Last reported at 2018-Apr-21 01:56 UTC.
Time now 2018-Apr-21 02:19 UTC

Location: N 38°44' E 000°06'.
View on Google Maps.

See reports from other nearby stations

  
Tides and Currents Weather Stations Pressure Air Temp Water Temp Dewpoint Dewpoint Depression Visibility Wind Speed Wind Dir Waves Ship Positions
date/time (UTC)wind fromknots sea level pressurealtimeterstation pressurevisibilityair tempwater tempwave heightnotes
2018-Apr-21 02:06 13.3
2018-Apr-21 01:56 315 2 gusting 4 13.3
2018-Apr-21 01:46 045 2 gusting 4 13.3
2018-Apr-21 01:36 13.3
2018-Apr-21 01:26 315 2 gusting 4 13.9
2018-Apr-21 01:16 045 1 gusting 3 13.9
2018-Apr-21 01:06 13.9
2018-Apr-21 00:56 315 2 gusting 3 13.9
2018-Apr-21 00:46 13.9
2018-Apr-21 00:36 270 3 gusting 5 13.9
2018-Apr-21 00:26 315 3 gusting 5 13.9
2018-Apr-21 00:11 022 2 gusting 5 13.9
2018-Apr-20 23:56 090 1 gusting 3 13.9
2018-Apr-20 23:46 315 1 gusting 2 13.9
2018-Apr-20 23:36 337 2 gusting 4 13.9
2018-Apr-20 23:26 270 2 gusting 5 13.9
2018-Apr-20 23:16 315 1 gusting 2 13.9
2018-Apr-20 23:06 090 1 gusting 3 13.9
2018-Apr-20 22:56 180 13.9
2018-Apr-20 22:41 315 0 gusting 1 13.9
2018-Apr-20 22:31 135 13.9
2018-Apr-20 22:16 315 1 gusting 3 13.9
2018-Apr-20 22:06 270 0 gusting 2 13.9
2018-Apr-20 21:56 270 0 gusting 2 14.4
2018-Apr-20 21:46 045 0 gusting 1 14.4
2018-Apr-20 21:36 315 1 gusting 2 14.4
2018-Apr-20 21:26 247 0 gusting 2 15.0
2018-Apr-20 21:11 15.0
2018-Apr-20 20:56 315 2 gusting 4 15.0
2018-Apr-20 20:46 045 3 gusting 5 15.0
2018-Apr-20 20:36 15.0
2018-Apr-20 20:26 315 0 gusting 2 15.6
2018-Apr-20 20:16 15.6
2018-Apr-20 20:01 045 2 gusting 4 15.6
2018-Apr-20 19:51 16.1
2018-Apr-20 19:36 270 1 gusting 3 16.1
2018-Apr-20 19:21 16.7
2018-Apr-20 19:11 270 0 gusting 1 17.2
2018-Apr-20 18:56 315 1 gusting 3 17.8
2018-Apr-20 18:46 045 0 gusting 2 17.8
2018-Apr-20 18:36 18.3
2018-Apr-20 18:26 045 2 gusting 5 18.9
2018-Apr-20 18:16 292 4 gusting 7 19.4
2018-Apr-20 18:06 315 3 gusting 5 20.0
2018-Apr-20 17:56 270 1 gusting 2 20.0
2018-Apr-20 17:46 20.6
2018-Apr-20 17:31 315 0 gusting 2 21.1
2018-Apr-20 17:16 21.7
2018-Apr-20 17:06 292 2 gusting 4 21.7
2018-Apr-20 16:56 022 0 gusting 2 22.2
2018-Apr-20 16:46 22.2
2018-Apr-20 16:36 292 1 gusting 4 22.8
2018-Apr-20 16:26 315 2 gusting 5 22.8
2018-Apr-20 16:16 270 0 gusting 2 22.2
2018-Apr-20 16:06 045 1 gusting 2 22.2
2018-Apr-20 15:56 270 0 gusting 2 22.2
2018-Apr-20 15:46 225 0 gusting 1 22.2
2018-Apr-20 15:36 225 21.7
2018-Apr-20 15:26 22.2
2018-Apr-20 15:11 225 0 gusting 2 22.2
2018-Apr-20 14:56 135 0 gusting 2 22.2
2018-Apr-20 14:46 21.7
2018-Apr-20 14:36 045 1 gusting 5 21.7
2018-Apr-20 14:26 315 1 gusting 2 21.1
2018-Apr-20 14:16 180 0 gusting 2 21.7
2018-Apr-20 14:06 090 0 gusting 1 21.7
2018-Apr-20 13:56 157 1 gusting 2 21.7
2018-Apr-20 13:46 21.1
2018-Apr-20 13:31 20.6
2018-Apr-20 13:16 045 2 gusting 4 20.0
2018-Apr-20 13:06 045 1 gusting 3 20.0
2018-Apr-20 12:56 135 0 gusting 2 20.6
2018-Apr-20 12:46 315 20.6
2018-Apr-20 12:36 090 0 gusting 1 20.6
2018-Apr-20 12:26 225 2 gusting 3 20.6
2018-Apr-20 12:16 315 2 gusting 4 21.1
2018-Apr-20 12:06 090 0 gusting 3 21.1
2018-Apr-20 11:56 315 1 gusting 2 21.1
2018-Apr-20 11:46 180 3 gusting 6 21.1
2018-Apr-20 11:36 045 2 gusting 7 21.1
2018-Apr-20 11:26 180 0 gusting 3 21.1
2018-Apr-20 11:06 20.6
2018-Apr-20 10:56 180 1 gusting 4 20.6
2018-Apr-20 10:46 270 2 gusting 3 20.0
2018-Apr-20 10:36 292 5 gusting 8 20.0
2018-Apr-20 10:26 315 2 gusting 5 19.4
2018-Apr-20 10:16 18.9
2018-Apr-20 10:06 270 0 gusting 2 17.8
2018-Apr-20 09:56 270 1 gusting 2 17.2
2018-Apr-20 09:46 090 2 gusting 5 16.7
2018-Apr-20 09:36 315 4 gusting 7 16.7
2018-Apr-20 09:26 315 16.1
2018-Apr-20 09:16 090 2 gusting 4 15.6
2018-Apr-20 09:06 090 0 gusting 1 15.6
2018-Apr-20 08:56 135 2 gusting 5 15.6
2018-Apr-20 08:46 180 0 gusting 1 15.6
2018-Apr-20 08:36 270 1 gusting 2 15.6
2018-Apr-20 08:26 292 3 gusting 5 15.6
2018-Apr-20 08:16 270 2 gusting 5 15.6
2018-Apr-20 08:06 270 15.0
2018-Apr-20 07:56 15.0
2018-Apr-20 07:46 315 0 gusting 1 15.0
2018-Apr-20 07:36 135 0 gusting 2 15.0
2018-Apr-20 07:26 315 3 gusting 6 15.0
2018-Apr-20 07:16 225 14.4
2018-Apr-20 07:06 225 2 gusting 5 14.4
2018-Apr-20 06:51 14.4
2018-Apr-20 06:36 14.4
2018-Apr-20 06:26 315 14.4
2018-Apr-20 06:16 247 13.9
2018-Apr-20 06:01 315 4 gusting 7 13.9
2018-Apr-20 05:51 315 2 gusting 5 13.9
2018-Apr-20 05:36 315 1 gusting 2 13.9
2018-Apr-20 05:26 045 0 gusting 2 13.9
2018-Apr-20 05:16 135 1 gusting 2 13.9
2018-Apr-20 05:06 315 2 gusting 4 13.9
2018-Apr-20 04:56 315 0 gusting 2 13.9
2018-Apr-20 04:46 315 1 gusting 4 13.9
2018-Apr-20 04:36 292 1 gusting 2 13.9
2018-Apr-20 04:26 13.9
2018-Apr-20 04:16 315 2 gusting 4 13.9
2018-Apr-20 04:06 315 0 gusting 3 13.9
2018-Apr-20 03:56 090 0 gusting 2 13.9
2018-Apr-20 03:46 315 0 gusting 2 13.9
2018-Apr-20 03:36 315 0 gusting 1 13.9
2018-Apr-20 03:26 315 5 gusting 7 13.9
2018-Apr-20 03:11 315 1 gusting 2 13.9
2018-Apr-20 02:56 292 1 gusting 2 13.9
2018-Apr-20 02:46 315 2 gusting 7 13.9
2018-Apr-20 02:36 315 1 gusting 4 13.9
2018-Apr-20 02:22 13.9
2018-Apr-20 02:11 292 3 gusting 5 13.9
2018-Apr-20 01:56 13.9
2018-Apr-20 01:46 090 2 gusting 5 13.9
2018-Apr-20 01:36 315 1 gusting 2 13.9
2018-Apr-20 01:26 045 1 gusting 3 13.9
2018-Apr-20 01:11 13.9
2018-Apr-20 00:56 315 1 gusting 2 13.9
2018-Apr-20 00:46 315 2 gusting 4 13.9
2018-Apr-20 00:36 090 2 gusting 4 13.9
2018-Apr-20 00:26 292 1 gusting 3 13.9
2018-Apr-20 00:16 045 3 gusting 5 13.9
2018-Apr-20 00:06 337 2 gusting 5 13.9
2018-Apr-19 23:56 13.9
2018-Apr-19 23:46 13.9
2018-Apr-19 23:31 315 0 gusting 2 13.9
2018-Apr-19 23:16 14.4
2018-Apr-19 23:06 14.4
2018-Apr-19 22:56 14.4
2018-Apr-19 22:46 045 14.4
2018-Apr-19 22:31 14.4
2018-Apr-19 22:16 14.4
2018-Apr-19 22:06 090 0 gusting 3 14.4
2018-Apr-19 21:56 090 14.4
2018-Apr-19 21:46 15.0
2018-Apr-19 21:36 090 0 gusting 2 15.0
2018-Apr-19 21:26 315 15.0
2018-Apr-19 21:16 315 3 gusting 7 15.0
2018-Apr-19 21:06 315 0 gusting 2 15.0
2018-Apr-19 20:56 225 1 gusting 3 15.0
2018-Apr-19 20:46 090 15.0
2018-Apr-19 20:36 15.0
2018-Apr-19 20:26 045 1 gusting 3 15.0
2018-Apr-19 20:16 135 2 gusting 4 15.6
2018-Apr-19 20:06 15.6
2018-Apr-19 19:56 15.6
2018-Apr-19 19:46 15.6
2018-Apr-19 19:36 337 1 gusting 4 15.6
2018-Apr-19 19:26 16.1
2018-Apr-19 19:16 045 3 gusting 9 16.1
2018-Apr-19 19:06 270 2 gusting 5 16.7
2018-Apr-19 18:56 315 1 gusting 2 16.7
2018-Apr-19 18:46 045 2 gusting 5 17.2
2018-Apr-19 18:36 135 2 gusting 2 17.8
2018-Apr-19 18:26 045 2 gusting 4 17.8
2018-Apr-19 18:16 315 5 gusting 7 18.3
2018-Apr-19 18:06 270 3 gusting 5 18.9
2018-Apr-19 17:56 180 2 gusting 5 19.4
2018-Apr-19 17:46 090 1 gusting 2 20.0
2018-Apr-19 17:36 20.0
2018-Apr-19 17:26 315 2 gusting 5 20.6
2018-Apr-19 17:16 20.6
2018-Apr-19 17:06 21.1
2018-Apr-19 16:56 045 2 gusting 3 21.1
2018-Apr-19 16:46 315 5 gusting 8 21.7
2018-Apr-19 16:36 21.7
2018-Apr-19 16:26 22.2
2018-Apr-19 16:16 315 2 gusting 5 22.2
2018-Apr-19 16:06 045 1 gusting 2 22.8
2018-Apr-19 15:56 090 2 gusting 7 22.8
2018-Apr-19 15:46 270 0 gusting 3 22.8
2018-Apr-19 15:31 270 2 gusting 6 22.8
2018-Apr-19 15:16 270 1 gusting 2 23.3
2018-Apr-19 15:06 225 23.3
2018-Apr-19 14:51 045 1 gusting 2 23.3
2018-Apr-19 14:41 225 0 gusting 3 23.3
2018-Apr-19 14:31 022 1 gusting 5 23.3
2018-Apr-19 14:21 315 2 gusting 6 23.3
2018-Apr-19 14:11 23.3
2018-Apr-19 14:01 180 4 gusting 6 23.3
2018-Apr-19 13:51 315 2 gusting 4 23.3
2018-Apr-19 13:41 180 1 gusting 2 23.3
2018-Apr-19 13:31 180 4 gusting 6 23.3
2018-Apr-19 13:21 090 22.8
2018-Apr-19 13:11 315 1 gusting 2 22.8
2018-Apr-19 13:01 22.8
2018-Apr-19 12:51 180 1 gusting 3 22.8
2018-Apr-19 12:41 315 1 gusting 3 22.2
2018-Apr-19 12:31 090 0 gusting 2 22.2
2018-Apr-19 12:21 315 1 gusting 3 22.2
2018-Apr-19 12:11 225 4 gusting 8 21.7
2018-Apr-19 12:01 315 3 gusting 5 21.7
2018-Apr-19 11:51 225 1 gusting 3 21.7
2018-Apr-19 11:41 225 2 gusting 4 21.7
2018-Apr-19 11:31 21.7
2018-Apr-19 11:21 315 2 gusting 4 21.7
2018-Apr-19 11:11 180 2 gusting 5 21.7
2018-Apr-19 11:01 315 3 gusting 6 21.1
2018-Apr-19 10:51 045 2 gusting 5 21.1
2018-Apr-19 10:41 315 2 gusting 5 21.1
2018-Apr-19 10:31 20.6
2018-Apr-19 10:16 315 5 gusting 7 20.6
2018-Apr-19 10:06 090 0 gusting 1 20.6
2018-Apr-19 09:56 045 2 gusting 4 20.0
2018-Apr-19 09:46 135 0 gusting 2 20.0
2018-Apr-19 09:36 045 0 gusting 2 19.4
2018-Apr-19 09:26 045 2 gusting 6 19.4
2018-Apr-19 09:16 180 1 gusting 4 18.9
2018-Apr-19 09:06 315 3 gusting 5 18.9
2018-Apr-19 08:56 270 2 gusting 5 18.3
2018-Apr-19 08:46 315 3 gusting 6 18.3
2018-Apr-19 08:36 315 1 gusting 3 17.8
2018-Apr-19 08:26 045 2 gusting 5 17.2
2018-Apr-19 08:16 315 1 gusting 3 16.7
2018-Apr-19 08:06 16.7
2018-Apr-19 07:56 045 3 gusting 7 16.1
2018-Apr-19 07:46 270 2 gusting 5 15.6
2018-Apr-19 07:36 045 1 gusting 3 15.0
2018-Apr-19 07:26 292 4 gusting 6 15.0
2018-Apr-19 07:16 15.0
2018-Apr-19 07:06 315 2 gusting 5 15.0
2018-Apr-19 06:56 315 3 gusting 5 14.4
2018-Apr-19 06:46 045 1 gusting 3 14.4
2018-Apr-19 06:36 315 2 gusting 4 14.4
2018-Apr-19 06:26 14.4
2018-Apr-19 06:16 13.9
2018-Apr-19 06:06 13.9
2018-Apr-19 05:56 315 3 gusting 6 13.9
2018-Apr-19 05:46 270 2 gusting 5 13.9
2018-Apr-19 05:36 337 3 gusting 6 13.9
2018-Apr-19 05:26 112 2 gusting 4 13.9
2018-Apr-19 05:16 315 2 gusting 4 13.9
2018-Apr-19 05:06 13.9
2018-Apr-19 04:56 315 2 gusting 5 13.9
2018-Apr-19 04:46 315 2 gusting 3 14.4
2018-Apr-19 04:36 14.4
2018-Apr-19 04:26 14.4
2018-Apr-19 04:16 315 6 gusting 10 14.4
2018-Apr-19 04:06 315 1 gusting 2 14.4
2018-Apr-19 03:56 180 6 gusting 12 14.4
2018-Apr-19 03:46 315 2 gusting 3 14.4
2018-Apr-19 03:36 022 4 gusting 6 14.4
2018-Apr-19 03:26 14.4
2018-Apr-19 03:16 15.0
2018-Apr-19 03:06 15.0
2018-Apr-19 02:56 15.0
2018-Apr-19 02:46 045 4 gusting 6 15.0
2018-Apr-19 02:36 067 3 gusting 7 15.0
2018-Apr-19 02:26 15.0
2018-Apr-19 02:16 045 3 gusting 5 15.0
2018-Apr-19 02:06 15.6